createdAt,value
2023-03-04T00:02:27.843Z,99.90
2023-03-04T00:04:54.602Z,99.90
2023-03-04T00:07:21.340Z,99.90
2023-03-04T00:09:48.141Z,99.90
2023-03-04T00:12:15.243Z,99.90
2023-03-04T00:14:42.130Z,99.90
2023-03-04T00:17:09.164Z,99.90
2023-03-04T00:19:36.275Z,99.90
2023-03-04T00:22:04.639Z,99.90
2023-03-04T00:24:31.715Z,99.90
2023-03-04T00:26:58.594Z,99.90
2023-03-04T00:29:25.349Z,99.90
2023-03-04T00:31:52.105Z,99.90
2023-03-04T00:34:19.031Z,99.90
2023-03-04T00:36:45.724Z,99.90
2023-03-04T00:39:13.480Z,99.90
2023-03-04T00:41:40.490Z,99.90
2023-03-04T00:44:07.552Z,99.90
2023-03-04T00:46:34.408Z,99.90
2023-03-04T00:49:01.096Z,99.90
2023-03-04T00:51:27.750Z,99.90
2023-03-04T00:53:54.605Z,99.90
2023-03-04T00:56:21.333Z,99.90
2023-03-04T00:58:48.041Z,99.90
2023-03-04T01:01:14.746Z,99.90
2023-03-04T01:03:42.409Z,99.90
2023-03-04T01:06:09.352Z,99.90
2023-03-04T01:08:36.199Z,99.90
2023-03-04T01:11:02.942Z,99.90
2023-03-04T01:13:29.777Z,99.90
2023-03-04T01:15:57.621Z,99.90
2023-03-04T01:18:24.985Z,99.90
2023-03-04T01:20:51.800Z,99.90
2023-03-04T01:23:18.519Z,99.90
2023-03-04T01:25:45.233Z,99.90
2023-03-04T01:28:11.982Z,99.90
2023-03-04T01:30:38.830Z,99.90
2023-03-04T01:33:05.606Z,99.90
2023-03-04T01:35:32.485Z,99.90
2023-03-04T01:37:59.206Z,99.90
2023-03-04T01:40:25.985Z,99.90
2023-03-04T01:42:52.809Z,99.90
2023-03-04T01:45:20.838Z,99.90
2023-03-04T01:47:49.178Z,99.90
2023-03-04T01:50:32.893Z,99.90
2023-03-04T01:53:00.432Z,99.90
2023-03-04T01:55:28.674Z,99.90
2023-03-04T01:57:57.319Z,99.90
2023-03-04T02:00:28.007Z,99.90
2023-03-04T02:03:07.218Z,99.90
2023-03-04T02:05:35.757Z,99.90
2023-03-04T02:08:04.742Z,99.90
2023-03-04T02:10:32.330Z,99.90
2023-03-04T02:13:01.011Z,99.90
2023-03-04T02:15:29.544Z,99.90
2023-03-04T02:17:56.400Z,99.90
2023-03-04T02:20:51.170Z,99.90
2023-03-04T02:23:30.482Z,99.90
2023-03-04T02:26:20.722Z,99.90
2023-03-04T02:28:50.909Z,99.90
2023-03-04T02:31:38.035Z,99.90
2023-03-04T02:34:16.794Z,99.90
2023-03-04T02:36:45.069Z,99.90
2023-03-04T02:39:21.553Z,99.90
2023-03-04T02:41:53.624Z,99.90
2023-03-04T02:44:21.590Z,99.90
2023-03-04T02:46:51.286Z,99.90
2023-03-04T02:49:19.186Z,99.90
2023-03-04T02:51:46.444Z,99.90
2023-03-04T02:54:18.569Z,99.90
2023-03-04T02:56:48.916Z,99.90
2023-03-04T02:59:16.679Z,99.90
2023-03-04T03:01:43.522Z,99.90
2023-03-04T03:04:10.552Z,99.90
2023-03-04T03:06:37.359Z,99.90
2023-03-04T03:09:04.181Z,99.90
2023-03-04T03:11:31.408Z,99.90
2023-03-04T03:13:58.143Z,99.90
2023-03-04T03:16:24.947Z,99.90
2023-03-04T03:18:51.963Z,99.90
2023-03-04T03:21:18.836Z,99.90
2023-03-04T03:23:45.590Z,99.90
2023-03-04T03:26:12.277Z,99.90
2023-03-04T03:28:38.959Z,99.90
2023-03-04T03:31:06.039Z,99.90
2023-03-04T03:33:32.765Z,99.90
2023-03-04T03:36:00.462Z,99.90
2023-03-04T03:38:27.845Z,99.90
2023-03-04T03:40:54.504Z,99.90
2023-03-04T03:43:21.206Z,99.90
2023-03-04T03:45:47.933Z,99.90
2023-03-04T03:48:14.705Z,99.90
2023-03-04T03:50:41.520Z,99.90
2023-03-04T03:53:08.197Z,99.90
2023-03-04T03:55:34.869Z,99.90
2023-03-04T03:58:01.654Z,99.90
2023-03-04T04:00:28.322Z,99.90
2023-03-04T04:02:56.685Z,99.90
2023-03-04T04:05:23.402Z,99.90
2023-03-04T04:07:51.383Z,99.90
2023-03-04T04:10:19.320Z,99.90
2023-03-04T04:12:46.084Z,99.90
2023-03-04T04:15:13.723Z,99.90
2023-03-04T04:17:40.478Z,99.90
2023-03-04T04:20:08.542Z,99.90
2023-03-04T04:22:35.195Z,99.90
2023-03-04T04:25:01.902Z,99.90
2023-03-04T04:27:28.600Z,99.90
2023-03-04T04:29:55.252Z,99.90
2023-03-04T04:32:22.021Z,99.90
2023-03-04T04:34:48.731Z,99.90
2023-03-04T04:37:15.407Z,99.90
2023-03-04T04:39:42.098Z,99.90
2023-03-04T04:42:10.959Z,99.90
2023-03-04T04:44:38.960Z,99.90
2023-03-04T04:47:07.382Z,99.90
2023-03-04T04:49:34.239Z,99.90
2023-03-04T04:52:01.353Z,99.90
2023-03-04T04:54:28.052Z,99.90
2023-03-04T04:56:54.958Z,99.90
2023-03-04T04:59:21.726Z,99.90
2023-03-04T05:01:48.503Z,99.90
2023-03-04T05:04:15.345Z,99.90
2023-03-04T05:06:42.222Z,99.90
2023-03-04T05:09:08.981Z,99.90
2023-03-04T05:11:35.658Z,99.90
2023-03-04T05:14:02.324Z,99.90
2023-03-04T05:16:29.066Z,99.90
2023-03-04T05:18:55.736Z,99.90
2023-03-04T05:21:22.416Z,99.90
2023-03-04T05:23:49.165Z,99.90
2023-03-04T05:26:17.533Z,99.90
2023-03-04T05:28:44.625Z,99.90
2023-03-04T05:31:11.492Z,99.90
2023-03-04T05:33:38.374Z,99.90
2023-03-04T05:36:06.630Z,99.90
2023-03-04T05:38:33.352Z,99.90
2023-03-04T05:41:03.210Z,99.90
2023-03-04T05:43:30.583Z,99.90
2023-03-04T05:45:57.579Z,99.90
2023-03-04T05:48:24.322Z,99.90
2023-03-04T05:50:58.819Z,99.90
2023-03-04T05:53:25.963Z,99.90
2023-03-04T05:55:53.320Z,99.90
2023-03-04T05:58:20.685Z,99.90
2023-03-04T06:00:48.104Z,99.90
2023-03-04T06:03:17.709Z,99.90
2023-03-04T06:05:44.709Z,99.90
2023-03-04T06:08:12.723Z,99.90
2023-03-04T06:10:40.872Z,99.90
2023-03-04T06:13:08.242Z,99.90
2023-03-04T06:15:35.249Z,99.90
2023-03-04T06:18:02.186Z,99.90
2023-03-04T06:20:29.033Z,99.90
2023-03-04T06:22:56.098Z,99.90
2023-03-04T06:25:24.227Z,99.90
2023-03-04T06:27:51.144Z,99.90
2023-03-04T06:30:19.226Z,99.90
2023-03-04T06:32:47.452Z,99.90
2023-03-04T06:35:14.982Z,99.90
2023-03-04T06:37:42.235Z,99.90
2023-03-04T06:40:10.044Z,99.90
2023-03-04T06:42:37.342Z,99.90
2023-03-04T06:45:05.020Z,99.90
2023-03-04T06:47:31.689Z,99.90
2023-03-04T06:49:58.631Z,99.90
2023-03-04T06:52:25.351Z,99.90
2023-03-04T06:54:52.059Z,99.90
2023-03-04T06:57:18.724Z,99.90
2023-03-04T06:59:45.471Z,99.90
2023-03-04T07:02:12.693Z,99.90
2023-03-04T07:04:39.672Z,99.90
2023-03-04T07:07:06.582Z,99.90
2023-03-04T07:09:33.288Z,99.90
2023-03-04T07:11:59.990Z,99.90
2023-03-04T07:14:27.820Z,99.90
2023-03-04T07:16:54.723Z,99.90
2023-03-04T07:19:21.568Z,99.90
2023-03-04T07:21:48.320Z,99.90
2023-03-04T07:24:15.076Z,99.90
2023-03-04T07:26:41.845Z,99.90
2023-03-04T07:29:08.648Z,99.90
2023-03-04T07:31:36.123Z,99.90
2023-03-04T07:34:08.205Z,99.90
2023-03-04T07:36:36.554Z,99.90
2023-03-04T07:39:04.563Z,99.90
2023-03-04T07:41:31.488Z,99.90
2023-03-04T07:43:58.974Z,99.90
2023-03-04T07:46:25.873Z,99.90
2023-03-04T07:48:53.045Z,99.90
2023-03-04T07:51:22.980Z,99.90
2023-03-04T07:53:52.988Z,99.90
2023-03-04T07:56:23.604Z,99.90
2023-03-04T07:58:53.623Z,99.90
2023-03-04T08:01:32.834Z,99.90
2023-03-04T08:04:00.307Z,99.90
2023-03-04T08:06:27.672Z,99.90
2023-03-04T08:09:05.816Z,99.90
2023-03-04T08:11:33.628Z,99.90
2023-03-04T08:14:00.697Z,99.90
2023-03-04T08:16:27.658Z,99.90
2023-03-04T08:18:57.786Z,99.90
2023-03-04T08:21:26.180Z,99.90
2023-03-04T08:23:53.597Z,99.90
2023-03-04T08:26:29.584Z,99.90
2023-03-04T08:28:57.273Z,99.90
2023-03-04T08:31:24.631Z,99.90
2023-03-04T08:33:52.653Z,99.90
2023-03-04T08:36:19.896Z,99.90
2023-03-04T08:38:46.766Z,99.90
2023-03-04T08:41:13.894Z,99.90
2023-03-04T08:43:40.751Z,99.90
2023-03-04T08:46:07.706Z,99.90
2023-03-04T08:48:34.747Z,99.90
2023-03-04T08:51:01.520Z,99.90
2023-03-04T08:53:28.219Z,99.90
2023-03-04T08:55:54.970Z,99.90
2023-03-04T08:58:21.839Z,99.90
2023-03-04T09:00:51.404Z,99.90
2023-03-04T09:03:20.495Z,99.90
2023-03-04T09:05:48.435Z,99.90
2023-03-04T09:08:15.763Z,99.90
2023-03-04T09:10:43.112Z,99.90
2023-03-04T09:13:11.458Z,99.90
2023-03-04T09:15:43.487Z,99.90
2023-03-04T09:18:10.223Z,99.90
2023-03-04T09:20:36.977Z,99.90
2023-03-04T09:23:03.792Z,99.90
2023-03-04T09:25:30.651Z,99.90
2023-03-04T09:27:57.446Z,99.90
2023-03-04T09:30:24.350Z,99.90
2023-03-04T09:32:51.389Z,99.90
2023-03-04T09:35:18.209Z,97.90
2023-03-04T09:37:46.784Z,98.20
2023-03-04T09:40:20.788Z,98.50
2023-03-04T09:42:55.729Z,97.20
2023-03-04T09:45:27.343Z,96.50
2023-03-04T09:47:55.509Z,94.60
2023-03-04T09:50:22.480Z,93.20
2023-03-04T09:53:07.865Z,90.90
2023-03-04T09:55:40.489Z,84.70
2023-03-04T09:58:25.254Z,84.10
2023-03-04T10:00:57.056Z,84.30
2023-03-04T10:03:48.962Z,81.40
2023-03-04T10:06:21.274Z,82.20
2023-03-04T10:09:29.130Z,77.20
2023-03-04T10:12:02.821Z,78.90
2023-03-04T10:14:40.218Z,77.00
2023-03-04T10:17:23.831Z,79.00
2023-03-04T10:20:10.229Z,78.10
2023-03-04T10:22:51.805Z,75.90
2023-03-04T10:25:27.948Z,80.20
2023-03-04T10:28:02.855Z,75.70
2023-03-04T10:31:23.076Z,83.20
2023-03-04T10:33:50.106Z,76.30
2023-03-04T10:36:36.395Z,78.50
2023-03-04T10:39:12.996Z,75.10
2023-03-04T10:41:45.415Z,74.60
2023-03-04T10:44:16.503Z,80.70
2023-03-04T10:46:48.389Z,76.70
2023-03-04T10:49:18.693Z,72.90
2023-03-04T10:51:52.227Z,69.90
2023-03-04T10:54:28.015Z,70.20
2023-03-04T10:57:05.351Z,70.20
2023-03-04T10:59:43.552Z,71.70
2023-03-04T11:02:31.809Z,75.40
2023-03-04T11:05:07.439Z,76.10
2023-03-04T11:07:54.424Z,71.30
2023-03-04T11:10:39.548Z,75.80
2023-03-04T11:13:17.761Z,73.90
2023-03-04T11:15:56.268Z,70.50
2023-03-04T11:18:49.558Z,68.40
2023-03-04T11:21:22.236Z,67.60
2023-03-04T11:23:51.501Z,68.50
2023-03-04T11:26:39.333Z,66.20
2023-03-04T11:29:14.856Z,64.70
2023-03-04T11:32:13.694Z,65.40
2023-03-04T11:35:07.972Z,66.10
2023-03-04T11:37:44.011Z,67.70
2023-03-04T11:40:30.407Z,73.40
2023-03-04T11:43:18.702Z,71.00
2023-03-04T11:46:25.946Z,70.20
2023-03-04T11:49:11.495Z,66.40
2023-03-04T11:52:14.231Z,63.20
2023-03-04T11:55:02.576Z,61.20
2023-03-04T11:58:19.095Z,62.00
2023-03-04T12:01:18.027Z,62.50
2023-03-04T12:04:12.551Z,61.70
2023-03-04T12:06:59.392Z,64.10
2023-03-04T12:09:33.985Z,67.20
2023-03-04T12:12:44.041Z,61.80
2023-03-04T12:15:13.562Z,62.00
2023-03-04T12:18:14.096Z,60.80
2023-03-04T12:20:57.693Z,60.70
2023-03-04T12:24:01.943Z,60.00
2023-03-04T12:26:41.324Z,61.80
2023-03-04T12:29:28.028Z,65.60
2023-03-04T12:32:03.902Z,62.60
2023-03-04T12:35:02.767Z,60.40
2023-03-04T12:37:51.298Z,57.30
2023-03-04T12:40:32.479Z,57.20
2023-03-04T12:43:11.209Z,54.70
2023-03-04T12:45:46.216Z,55.70
2023-03-04T12:48:19.009Z,52.80
2023-03-04T12:51:09.913Z,56.50
2023-03-04T12:54:02.853Z,57.30
2023-03-04T12:56:48.787Z,56.60
2023-03-04T12:59:18.516Z,55.50
2023-03-04T13:02:18.515Z,55.60
2023-03-04T13:05:05.294Z,56.90
2023-03-04T13:08:00.775Z,57.40
2023-03-04T13:10:27.668Z,57.50
2023-03-04T13:12:55.993Z,59.00
2023-03-04T13:15:22.880Z,58.90
2023-03-04T13:18:02.221Z,57.60
2023-03-04T13:20:36.644Z,59.10
2023-03-04T13:23:09.441Z,59.30
2023-03-04T13:25:44.258Z,58.50
2023-03-04T13:28:30.982Z,56.30
2023-03-04T13:30:59.658Z,53.60
2023-03-04T13:33:26.248Z,54.80
2023-03-04T13:36:26.564Z,53.10
2023-03-04T13:39:03.285Z,53.60
2023-03-04T13:41:32.809Z,52.90
2023-03-04T13:44:06.817Z,51.80
2023-03-04T13:46:43.066Z,51.70
2023-03-04T13:49:23.612Z,50.50
2023-03-04T13:51:50.879Z,50.10
2023-03-04T13:54:46.801Z,48.80
2023-03-04T13:57:18.050Z,46.90
2023-03-04T13:59:55.602Z,47.30
2023-03-04T14:02:25.960Z,47.10
2023-03-04T14:05:00.850Z,44.10
2023-03-04T14:07:36.731Z,42.30
2023-03-04T14:10:11.226Z,41.60
2023-03-04T14:12:44.488Z,40.00
2023-03-04T14:15:20.654Z,37.00
2023-03-04T14:17:50.599Z,38.80
2023-03-04T14:20:34.122Z,38.90
2023-03-04T14:23:03.078Z,36.40
2023-03-04T14:25:36.677Z,37.10
2023-03-04T14:28:11.144Z,38.50
2023-03-04T14:30:43.401Z,37.90
2023-03-04T14:33:20.887Z,41.80
2023-03-04T14:35:50.108Z,42.90
2023-03-04T14:38:23.411Z,45.00
2023-03-04T14:41:05.626Z,49.00
2023-03-04T14:43:38.178Z,49.30
2023-03-04T14:46:12.251Z,51.40
2023-03-04T14:48:50.267Z,52.10
2023-03-04T14:51:41.750Z,52.50
2023-03-04T14:54:24.972Z,51.20
2023-03-04T14:56:51.598Z,52.50
2023-03-04T14:59:18.249Z,50.70
2023-03-04T15:01:45.977Z,51.70
2023-03-04T15:04:19.344Z,52.20
2023-03-04T15:06:55.500Z,54.30
2023-03-04T15:09:27.424Z,54.50
2023-03-04T15:12:08.281Z,56.80
2023-03-04T15:14:42.507Z,56.90
2023-03-04T15:17:39.174Z,58.40
2023-03-04T15:20:05.940Z,59.00
2023-03-04T15:22:44.827Z,60.00
2023-03-04T15:25:15.580Z,60.10
2023-03-04T15:27:44.059Z,60.60
2023-03-04T15:30:21.458Z,63.00
2023-03-04T15:32:48.259Z,62.80
2023-03-04T15:35:16.487Z,65.70
2023-03-04T15:37:44.412Z,65.80
2023-03-04T15:40:31.744Z,65.90
2023-03-04T15:43:01.433Z,66.80
2023-03-04T15:45:32.587Z,68.00
2023-03-04T15:47:59.283Z,67.00
2023-03-04T15:50:29.131Z,68.40
2023-03-04T15:53:00.145Z,68.20
2023-03-04T15:55:27.097Z,68.70
2023-03-04T15:57:56.523Z,70.80
2023-03-04T16:00:23.666Z,72.30
2023-03-04T16:02:50.574Z,70.70
2023-03-04T16:05:17.544Z,71.20
2023-03-04T16:07:50.582Z,70.50
2023-03-04T16:10:20.941Z,69.10
2023-03-04T16:12:48.077Z,70.50
2023-03-04T16:15:20.887Z,70.60
2023-03-04T16:17:48.068Z,71.60
2023-03-04T16:20:18.072Z,71.80
2023-03-04T16:22:46.913Z,71.50
2023-03-04T16:25:15.733Z,73.80
2023-03-04T16:27:42.992Z,74.80
2023-03-04T16:30:20.570Z,75.00
2023-03-04T16:32:48.170Z,76.10
2023-03-04T16:35:16.496Z,80.20
2023-03-04T16:37:44.080Z,81.40
2023-03-04T16:40:14.308Z,78.80
2023-03-04T16:42:41.610Z,80.60
2023-03-04T16:45:17.524Z,82.00
2023-03-04T16:47:44.946Z,83.80
2023-03-04T16:50:16.628Z,84.80
2023-03-04T16:52:45.618Z,85.50
2023-03-04T16:55:17.691Z,84.40
2023-03-04T16:57:44.586Z,86.30
2023-03-04T17:00:12.263Z,87.40
2023-03-04T17:02:39.122Z,87.30
2023-03-04T17:05:09.091Z,88.50
2023-03-04T17:07:36.859Z,89.50
2023-03-04T17:10:03.762Z,90.20
2023-03-04T17:12:30.732Z,90.20
2023-03-04T17:14:57.867Z,90.40
2023-03-04T17:17:24.580Z,90.50
2023-03-04T17:19:51.324Z,90.70
2023-03-04T17:22:18.091Z,91.40
2023-03-04T17:24:44.781Z,92.10
2023-03-04T17:27:11.686Z,92.30
2023-03-04T17:29:38.437Z,92.70
2023-03-04T17:32:05.359Z,93.50
2023-03-04T17:34:32.812Z,92.90
2023-03-04T17:36:59.886Z,93.20
2023-03-04T17:39:26.580Z,92.40
2023-03-04T17:41:53.876Z,92.70
2023-03-04T17:44:20.611Z,93.40
2023-03-04T17:46:49.064Z,94.10
2023-03-04T17:49:16.233Z,94.20
2023-03-04T17:51:43.883Z,94.20
2023-03-04T17:54:11.633Z,95.30
2023-03-04T17:56:40.583Z,96.20
2023-03-04T17:59:10.810Z,96.80
2023-03-04T18:01:37.576Z,96.70
2023-03-04T18:04:04.686Z,96.40
2023-03-04T18:06:31.600Z,96.00
2023-03-04T18:08:58.324Z,96.30
2023-03-04T18:11:26.822Z,95.70
2023-03-04T18:13:56.462Z,96.00
2023-03-04T18:16:26.561Z,96.00
2023-03-04T18:18:57.674Z,96.30
2023-03-04T18:21:25.562Z,96.50
2023-03-04T18:23:52.538Z,97.20
2023-03-04T18:26:22.634Z,96.80
2023-03-04T18:28:50.427Z,97.20
2023-03-04T18:31:21.978Z,98.00
2023-03-04T18:33:49.337Z,98.20
2023-03-04T18:36:16.204Z,98.00
2023-03-04T18:38:42.882Z,99.80
2023-03-04T18:41:14.635Z,99.90
2023-03-04T18:43:41.716Z,99.90
2023-03-04T18:46:29.698Z,99.90
2023-03-04T18:49:01.213Z,99.60
2023-03-04T18:51:27.913Z,99.60
2023-03-04T18:53:54.842Z,99.30
2023-03-04T18:56:28.017Z,99.10
2023-03-04T18:58:54.951Z,99.60
2023-03-04T19:01:25.075Z,98.90
2023-03-04T19:03:52.821Z,98.90
2023-03-04T19:06:19.787Z,98.80
2023-03-04T19:08:46.650Z,98.50
2023-03-04T19:11:13.404Z,98.80
2023-03-04T19:13:40.158Z,98.20
2023-03-04T19:16:07.269Z,98.70
2023-03-04T19:18:33.936Z,98.50
2023-03-04T19:21:01.065Z,98.20
2023-03-04T19:23:29.709Z,98.20
2023-03-04T19:25:56.683Z,98.70
2023-03-04T19:28:24.254Z,98.60
2023-03-04T19:30:53.149Z,98.30
2023-03-04T19:33:20.440Z,98.70
2023-03-04T19:35:47.829Z,99.00
2023-03-04T19:38:14.607Z,98.40
2023-03-04T19:40:42.295Z,98.80
2023-03-04T19:43:09.520Z,99.30
2023-03-04T19:45:36.302Z,98.90
2023-03-04T19:48:03.217Z,98.20
2023-03-04T19:50:31.131Z,97.90
2023-03-04T19:52:57.840Z,99.20
2023-03-04T19:55:24.769Z,99.90
2023-03-04T19:57:51.726Z,99.60
2023-03-04T20:00:18.867Z,99.70
2023-03-04T20:02:47.842Z,99.90
2023-03-04T20:05:14.729Z,99.90
2023-03-04T20:07:41.486Z,99.90
2023-03-04T20:10:09.039Z,99.60
2023-03-04T20:12:36.558Z,98.90
2023-03-04T20:15:06.308Z,98.10
2023-03-04T20:17:33.004Z,97.60
2023-03-04T20:19:59.711Z,96.80
2023-03-04T20:22:26.426Z,98.90
2023-03-04T20:28:41.703Z,99.90
2023-03-04T20:31:12.108Z,99.90
2023-03-04T20:33:39.083Z,99.90
2023-03-04T20:36:05.872Z,99.90
2023-03-04T20:38:32.668Z,99.60
2023-03-04T20:40:59.523Z,99.60
2023-03-04T20:43:28.550Z,98.70
2023-03-04T20:45:55.763Z,99.10
2023-03-04T20:48:22.491Z,99.30
2023-03-04T20:50:49.252Z,99.00
2023-03-04T20:53:16.077Z,98.90
2023-03-04T20:55:42.826Z,99.40
2023-03-04T20:58:09.597Z,99.30
2023-03-04T21:00:38.298Z,98.70
2023-03-04T21:03:05.028Z,96.90
2023-03-04T21:05:31.742Z,96.40
2023-03-04T21:07:58.897Z,96.10
2023-03-04T21:10:25.611Z,95.30
2023-03-04T21:12:52.404Z,95.50
2023-03-04T21:15:19.250Z,96.20
2023-03-04T21:17:45.921Z,95.90
2023-03-04T21:20:15.132Z,96.30
2023-03-04T21:22:41.868Z,96.10
2023-03-04T21:25:08.931Z,96.90
2023-03-04T21:27:38.766Z,97.20
2023-03-04T21:30:06.473Z,97.50
2023-03-04T21:32:33.718Z,98.10
2023-03-04T21:35:00.418Z,99.10
2023-03-04T21:37:27.264Z,99.40
2023-03-04T21:39:55.429Z,98.60
2023-03-04T21:42:22.302Z,98.20
2023-03-04T21:44:51.094Z,98.10
2023-03-04T21:47:19.541Z,97.50
2023-03-04T21:49:46.704Z,96.90
2023-03-04T21:52:13.525Z,96.80
2023-03-04T21:54:40.240Z,96.20
2023-03-04T21:57:07.027Z,96.00
2023-03-04T21:59:33.787Z,96.90
2023-03-04T22:02:01.267Z,97.40
2023-03-04T22:04:28.002Z,96.90
2023-03-04T22:06:54.978Z,97.20
2023-03-04T22:09:21.684Z,96.10
2023-03-04T22:11:48.436Z,95.40
2023-03-04T22:14:15.213Z,94.80
2023-03-04T22:16:54.457Z,95.60
2023-03-04T22:19:23.699Z,95.50
2023-03-04T22:21:51.941Z,95.80
2023-03-04T22:24:18.844Z,95.40
2023-03-04T22:26:45.725Z,96.80
2023-03-04T22:29:12.565Z,98.50
2023-03-04T22:31:39.489Z,99.90
2023-03-04T22:34:12.042Z,99.90
2023-03-04T22:36:42.775Z,99.90
2023-03-04T22:39:11.812Z,99.70
2023-03-04T22:41:38.611Z,98.10
2023-03-04T22:44:06.439Z,98.80
2023-03-04T22:46:35.833Z,99.30
2023-03-04T22:49:05.400Z,99.50
2023-03-04T22:51:32.277Z,99.50
2023-03-04T22:53:58.964Z,98.80
2023-03-04T22:56:25.663Z,98.00
2023-03-04T22:58:52.745Z,98.10
2023-03-04T23:01:20.108Z,97.20
2023-03-04T23:03:48.720Z,97.30
2023-03-04T23:06:21.274Z,99.00
2023-03-04T23:08:50.293Z,98.80
2023-03-04T23:11:22.941Z,98.90
2023-03-04T23:13:50.760Z,98.20
2023-03-04T23:16:18.717Z,97.90
2023-03-04T23:18:47.300Z,98.10
2023-03-04T23:21:18.492Z,98.60
2023-03-04T23:23:45.598Z,99.50
2023-03-04T23:26:27.404Z,99.90
2023-03-04T23:28:57.586Z,99.90
2023-03-04T23:31:25.781Z,99.60
2023-03-04T23:33:57.194Z,99.90
2023-03-04T23:36:35.995Z,98.30
2023-03-04T23:39:04.011Z,98.90
2023-03-04T23:41:31.627Z,99.80
2023-03-04T23:43:59.372Z,99.50
2023-03-04T23:46:26.925Z,99.90
2023-03-04T23:48:54.477Z,99.90
2023-03-04T23:51:24.027Z,99.90
2023-03-04T23:53:50.973Z,99.90
2023-03-04T23:56:24.148Z,99.90
2023-03-04T23:58:50.912Z,98.20
